Time;durP1;ratioP1;P1;durP2;ratioP2;P2;SDS_P1;SDS_P2;PMS_P1;PMS_P2;Temp;Humidity;BMP_temperature;BMP_pressure;BME280_temperature;BME280_humidity;BME280_pressure;Samples;Min_cycle;Max_cycle;Signal;HPM_P1;HPM_P2
2022/10/10 00:00:24;;;;;;;2.63;1.97;;;17.10;44.70;;;;;;5010599;28;20437;-77
2022/10/10 00:02:50;;;;;;;2.03;1.93;;;17.10;45.30;;;;;;5013250;28;20288;-77
2022/10/10 00:05:15;;;;;;;1.83;1.47;;;17.00;45.90;;;;;;5011832;28;20602;-77
2022/10/10 00:07:41;;;;;;;1.67;1.40;;;17.00;46.30;;;;;;5012927;28;20185;-77
2022/10/10 00:10:07;;;;;;;2.27;1.80;;;17.10;46.10;;;;;;5012519;28;20557;-77
2022/10/10 00:12:33;;;;;;;2.53;2.10;;;17.10;45.40;;;;;;5012077;28;20264;-77
2022/10/10 00:14:59;;;;;;;2.23;1.83;;;17.20;45.70;;;;;;5013599;28;21002;-77
2022/10/10 00:17:24;;;;;;;1.80;1.70;;;17.10;45.80;;;;;;5011241;28;20186;-77
2022/10/10 00:19:50;;;;;;;3.00;1.87;;;17.10;45.60;;;;;;5013588;28;20439;-77
2022/10/10 00:22:15;;;;;;;2.03;1.60;;;17.30;44.30;;;;;;5011176;28;20632;-77
2022/10/10 00:24:41;;;;;;;2.13;1.90;;;17.40;43.80;;;;;;5018111;28;20277;-77
2022/10/10 00:27:06;;;;;;;1.97;1.80;;;17.50;43.30;;;;;;5011762;28;20209;-77
2022/10/10 00:29:32;;;;;;;2.37;2.23;;;17.50;43.30;;;;;;5013925;28;20621;-77
2022/10/10 00:31:58;;;;;;;2.17;1.93;;;17.50;43.60;;;;;;5012387;28;20189;-77
2022/10/10 00:34:23;;;;;;;7.27;2.70;;;17.40;44.60;;;;;;5013154;28;20215;-77
2022/10/10 00:36:49;;;;;;;3.70;2.23;;;17.30;44.50;;;;;;5013223;28;20235;-77
2022/10/10 00:39:14;;;;;;;1.97;1.80;;;17.30;45.10;;;;;;5010362;28;20243;-77
2022/10/10 00:41:40;;;;;;;2.43;1.80;;;17.20;45.60;;;;;;5012897;28;20194;-77
2022/10/10 00:44:10;;;;;;;2.40;1.93;;;17.10;45.00;;;;;;5011606;28;20223;-77
2022/10/10 00:46:37;;;;;;;1.80;1.63;;;17.00;45.80;;;;;;5013601;28;20755;-77
2022/10/10 00:49:07;;;;;;;1.87;1.60;;;16.90;44.80;;;;;;5010150;28;20444;-77
2022/10/10 00:51:33;;;;;;;2.33;1.40;;;16.80;45.20;;;;;;5011548;28;20513;-77
2022/10/10 00:54:06;;;;;;;1.80;1.70;;;16.80;45.20;;;;;;5012373;28;21019;-77
2022/10/10 00:56:40;;;;;;;2.23;1.60;;;16.80;45.30;;;;;;5006762;28;20271;-77
2022/10/10 00:59:09;;;;;;;2.47;1.97;;;16.80;45.90;;;;;;5009510;28;20446;-77
2022/10/10 01:01:35;;;;;;;2.03;1.83;;;16.80;45.60;;;;;;5011546;28;20443;-77
2022/10/10 01:04:01;;;;;;;2.37;1.87;;;16.80;45.50;;;;;;5012229;28;20452;-77
2022/10/10 01:06:28;;;;;;;3.80;1.60;;;16.80;45.60;;;;;;5012106;28;20493;-77
2022/10/10 01:08:55;;;;;;;2.80;1.80;;;16.80;45.90;;;;;;5007850;28;20933;-77
2022/10/10 01:11:44;;;;;;;2.57;2.00;;;16.90;45.60;;;;;;5011701;28;20461;-77
2022/10/10 01:14:38;;;;;;;2.80;1.90;;;16.80;46.40;;;;;;5011456;28;20993;-77
2022/10/10 01:17:13;;;;;;;1.40;1.40;;;16.70;45.60;;;;;;5012592;28;20435;-77
2022/10/10 01:19:53;;;;;;;2.40;1.90;;;16.60;45.40;;;;;;5011207;28;20466;-77
2022/10/10 01:22:34;;;;;;;2.07;1.90;;;16.30;46.90;;;;;;5010932;28;20503;-77
2022/10/10 01:25:05;;;;;;;1.70;1.70;;;16.40;47.00;;;;;;5013603;28;20432;-77
2022/10/10 01:27:44;;;;;;;2.20;2.00;;;16.20;47.30;;;;;;5005998;28;20432;-77
2022/10/10 01:30:14;;;;;;;2.13;1.70;;;16.20;47.70;;;;;;5009507;28;20454;-77
2022/10/10 01:32:49;;;;;;;1.60;1.57;;;16.40;47.80;;;;;;5006923;28;20476;-77
2022/10/10 01:35:21;;;;;;;2.03;1.90;;;16.50;47.50;;;;;;5009499;28;20475;-77
2022/10/10 01:38:04;;;;;;;1.80;1.70;;;16.60;46.70;;;;;;5012233;28;20412;-77
2022/10/10 01:40:42;;;;;;;1.30;1.30;;;16.70;46.80;;;;;;5005287;28;20417;-77
2022/10/10 01:43:08;;;;;;;3.87;2.03;;;16.70;47.00;;;;;;5009246;28;20456;-77
2022/10/10 01:45:34;;;;;;;1.50;1.43;;;16.70;47.00;;;;;;5011647;28;20460;-77
2022/10/10 01:48:06;;;;;;;2.40;2.13;;;16.80;46.40;;;;;;5011324;28;21195;-77
2022/10/10 01:50:42;;;;;;;1.97;1.60;;;16.70;46.30;;;;;;5005204;28;20862;-77
2022/10/10 01:53:29;;;;;;;1.90;1.70;;;16.80;46.50;;;;;;5005747;28;20466;-77
2022/10/10 01:56:45;;;;;;;1.47;1.40;;;16.70;46.80;;;;;;5009776;28;20801;-78
2022/10/10 01:59:38;;;;;;;1.80;1.63;;;16.70;46.70;;;;;;5007086;28;20463;-77
2022/10/10 02:02:13;;;;;;;3.30;2.47;;;16.60;46.70;;;;;;5008095;28;20809;-77
2022/10/10 02:05:09;;;;;;;2.87;2.30;;;16.40;46.50;;;;;;5006744;28;20467;-77
2022/10/10 02:07:41;;;;;;;1.80;1.50;;;16.50;47.10;;;;;;5000602;28;20618;-77
2022/10/10 02:10:08;;;;;;;2.33;1.90;;;16.40;47.00;;;;;;5008821;28;20441;-77
2022/10/10 02:12:35;;;;;;;1.50;1.50;;;16.40;47.60;;;;;;5003843;28;20441;-78
2022/10/10 02:15:10;;;;;;;1.70;1.70;;;16.40;47.50;;;;;;5003796;28;20524;-77
2022/10/10 02:17:38;;;;;;;1.40;1.40;;;16.40;47.50;;;;;;5008631;28;20566;-78
2022/10/10 02:20:06;;;;;;;1.87;1.70;;;16.50;47.40;;;;;;5008631;28;20454;-77
2022/10/10 02:22:33;;;;;;;2.77;2.27;;;16.30;47.90;;;;;;5008541;28;20458;-77
2022/10/10 02:24:59;;;;;;;3.07;1.90;;;16.40;47.80;;;;;;5007565;28;20952;-77
2022/10/10 02:27:28;;;;;;;2.20;1.80;;;16.60;47.40;;;;;;5009420;28;20840;-77
2022/10/10 02:29:57;;;;;;;2.53;2.30;;;16.50;47.60;;;;;;5005948;28;20453;-77
2022/10/10 02:32:37;;;;;;;1.83;1.47;;;16.50;47.60;;;;;;5008331;28;20441;-78
2022/10/10 02:35:07;;;;;;;1.60;1.53;;;16.40;47.90;;;;;;5007959;28;20449;-78
2022/10/10 02:37:34;;;;;;;1.50;1.20;;;16.50;47.60;;;;;;5011408;28;20406;-78
2022/10/10 02:40:03;;;;;;;1.47;1.30;;;16.40;47.80;;;;;;5010923;28;20452;-78
2022/10/10 02:42:29;;;;;;;1.60;1.47;;;16.40;48.00;;;;;;4999979;28;20465;-77
2022/10/10 02:44:56;;;;;;;2.30;1.57;;;16.50;47.50;;;;;;5007019;28;20445;-77
2022/10/10 02:47:22;;;;;;;1.77;1.70;;;16.50;47.40;;;;;;5011762;28;20471;-77
2022/10/10 02:49:48;;;;;;;2.43;1.43;;;16.60;47.40;;;;;;5010023;28;20447;-78
2022/10/10 02:52:15;;;;;;;2.80;2.10;;;16.60;47.30;;;;;;5010063;28;20193;-77
2022/10/10 02:54:41;;;;;;;1.37;1.30;;;16.60;47.30;;;;;;5009391;28;20469;-77
2022/10/10 02:57:07;;;;;;;1.60;1.50;;;16.50;47.10;;;;;;5010554;28;21098;-77
2022/10/10 02:59:33;;;;;;;3.20;1.93;;;16.60;47.30;;;;;;5010760;28;20552;-77
2022/10/10 03:01:58;;;;;;;2.13;1.63;;;16.70;46.80;;;;;;5008161;28;20447;-77
2022/10/10 03:04:24;;;;;;;2.40;1.90;;;16.60;47.60;;;;;;5009665;28;20658;-78
2022/10/10 03:06:49;;;;;;;1.90;1.57;;;16.50;47.10;;;;;;5011655;28;20285;-78
2022/10/10 03:09:15;;;;;;;2.03;1.50;;;16.50;47.40;;;;;;5009655;28;20584;-77
2022/10/10 03:11:41;;;;;;;2.20;1.90;;;16.50;47.50;;;;;;5009481;28;20193;-77
2022/10/10 03:14:06;;;;;;;1.67;1.60;;;16.50;47.60;;;;;;5008350;28;21773;-77
2022/10/10 03:16:32;;;;;;;2.10;1.90;;;16.50;48.10;;;;;;5010873;28;20194;-77
2022/10/10 03:18:57;;;;;;;3.50;2.07;;;16.50;47.80;;;;;;5010264;28;20188;-77
2022/10/10 03:21:23;;;;;;;2.00;1.67;;;16.50;48.00;;;;;;5007520;28;20194;-78
2022/10/10 03:23:49;;;;;;;2.20;2.00;;;16.60;48.20;;;;;;5009861;28;20207;-77
2022/10/10 03:26:14;;;;;;;2.00;1.80;;;16.90;47.60;;;;;;5008913;28;20605;-78
2022/10/10 03:28:40;;;;;;;1.83;1.80;;;16.60;47.60;;;;;;5008565;28;20181;-78
2022/10/10 03:31:05;;;;;;;2.00;1.70;;;16.90;47.80;;;;;;5009887;28;20199;-77
2022/10/10 03:33:32;;;;;;;2.23;1.80;;;16.90;47.60;;;;;;5009967;28;20244;-78
2022/10/10 03:35:58;;;;;;;1.63;1.50;;;16.70;47.40;;;;;;5008730;28;20191;-78
2022/10/10 03:38:24;;;;;;;2.40;2.07;;;16.60;47.50;;;;;;5009244;28;20779;-77
2022/10/10 03:40:49;;;;;;;1.93;1.70;;;16.60;47.40;;;;;;5010567;28;20231;-78
2022/10/10 03:43:15;;;;;;;2.00;1.80;;;16.60;47.50;;;;;;5010074;28;20205;-77
2022/10/10 03:45:46;;;;;;;1.63;1.40;;;16.50;47.40;;;;;;5008551;28;20531;-77
2022/10/10 03:48:12;;;;;;;3.17;1.83;;;16.40;47.80;;;;;;5009729;28;20185;-78
2022/10/10 03:50:38;;;;;;;2.20;1.70;;;16.50;47.80;;;;;;5009914;28;20484;-77
2022/10/10 03:53:04;;;;;;;2.70;1.87;;;16.40;47.50;;;;;;5009570;28;20585;-77
2022/10/10 03:55:29;;;;;;;2.23;1.80;;;16.40;48.00;;;;;;5001304;28;20279;-77
2022/10/10 03:57:55;;;;;;;2.47;1.80;;;16.50;47.90;;;;;;5009608;28;20858;-77
2022/10/10 04:00:21;;;;;;;1.93;1.70;;;16.50;48.30;;;;;;5010133;28;20183;-77
2022/10/10 04:02:46;;;;;;;2.00;1.70;;;16.60;47.90;;;;;;5009263;28;20215;-77
2022/10/10 04:05:12;;;;;;;1.77;1.60;;;16.70;47.70;;;;;;5008319;28;20265;-77
2022/10/10 04:07:37;;;;;;;2.73;1.83;;;16.70;47.60;;;;;;5009013;28;20175;-77
2022/10/10 04:10:04;;;;;;;3.50;1.77;;;16.50;48.70;;;;;;5011259;28;20279;-78
2022/10/10 04:12:30;;;;;;;3.10;1.93;;;16.40;48.30;;;;;;5008755;28;20191;-77
2022/10/10 04:14:55;;;;;;;1.67;1.60;;;16.40;48.50;;;;;;5009642;28;20425;-77
2022/10/10 04:17:21;;;;;;;2.03;1.60;;;16.50;48.50;;;;;;5008615;28;20188;-78
2022/10/10 04:19:46;;;;;;;1.50;1.40;;;16.50;47.90;;;;;;5009213;28;20190;-77
2022/10/10 04:22:13;;;;;;;3.40;1.57;;;16.60;47.50;;;;;;5009326;28;20268;-77
2022/10/10 04:24:38;;;;;;;1.70;1.50;;;16.50;48.20;;;;;;5012899;28;20199;-77
2022/10/10 04:27:04;;;;;;;2.20;1.70;;;16.40;48.70;;;;;;5013341;28;20576;-77
2022/10/10 04:29:30;;;;;;;2.17;1.70;;;16.40;48.10;;;;;;5011367;28;20212;-77
2022/10/10 04:31:55;;;;;;;4.60;1.93;;;16.40;48.50;;;;;;5014261;28;20546;-77
2022/10/10 04:34:21;;;;;;;1.90;1.50;;;16.30;48.40;;;;;;5012200;28;20219;-77
2022/10/10 04:36:46;;;;;;;2.00;1.63;;;16.30;48.10;;;;;;5012324;28;20192;-77
2022/10/10 04:39:12;;;;;;;2.23;1.70;;;16.40;47.80;;;;;;5011630;28;20182;-77
2022/10/10 04:41:38;;;;;;;2.53;1.80;;;16.20;48.30;;;;;;5013368;28;20180;-77
2022/10/10 04:44:03;;;;;;;2.50;1.93;;;16.20;48.60;;;;;;5012130;28;20210;-77
2022/10/10 04:46:29;;;;;;;2.07;1.60;;;16.20;48.50;;;;;;5013464;28;20314;-77
2022/10/10 04:48:54;;;;;;;3.30;2.27;;;16.40;47.50;;;;;;5011946;28;20198;-77
2022/10/10 04:51:20;;;;;;;1.70;1.40;;;16.30;47.70;;;;;;5011801;28;20190;-78
2022/10/10 04:53:45;;;;;;;2.20;1.63;;;16.20;48.40;;;;;;5012635;28;20889;-77
2022/10/10 04:56:11;;;;;;;1.90;1.70;;;16.20;47.60;;;;;;5011681;28;20552;-77
2022/10/10 04:58:36;;;;;;;5.30;2.00;;;16.10;48.40;;;;;;5011925;28;20191;-77
2022/10/10 05:01:03;;;;;;;1.80;1.70;;;16.00;48.70;;;;;;5006634;28;20273;-77
2022/10/10 05:03:28;;;;;;;1.70;1.43;;;16.00;49.40;;;;;;5011217;28;20211;-78
2022/10/10 05:05:54;;;;;;;1.60;1.53;;;16.00;48.80;;;;;;5005151;28;20474;-77
2022/10/10 05:08:20;;;;;;;2.00;1.87;;;16.00;48.80;;;;;;5008099;28;20190;-77
2022/10/10 05:10:46;;;;;;;1.50;1.40;;;16.00;48.70;;;;;;5009795;28;20881;-77
2022/10/10 05:13:13;;;;;;;1.97;1.80;;;16.00;48.70;;;;;;5009956;28;20198;-77
2022/10/10 05:15:39;;;;;;;2.33;1.50;;;16.00;48.70;;;;;;5010310;28;20210;-78
2022/10/10 05:18:05;;;;;;;1.93;1.77;;;16.10;48.80;;;;;;5006202;28;20442;-78
2022/10/10 05:20:33;;;;;;;3.00;1.53;;;16.20;48.40;;;;;;5008461;28;20440;-77
2022/10/10 05:22:58;;;;;;;1.63;1.50;;;16.20;48.40;;;;;;5009263;28;20460;-77
2022/10/10 05:25:24;;;;;;;2.10;1.57;;;16.10;48.80;;;;;;5011468;28;20806;-77
2022/10/10 05:27:49;;;;;;;3.47;1.80;;;16.10;48.30;;;;;;5012509;28;20182;-77
2022/10/10 05:30:15;;;;;;;1.87;1.80;;;16.20;48.60;;;;;;5011486;28;20180;-77
2022/10/10 05:32:41;;;;;;;3.10;2.20;;;16.00;49.50;;;;;;5009066;28;20191;-77
2022/10/10 05:35:07;;;;;;;1.60;1.40;;;16.10;49.40;;;;;;5010798;28;20948;-77
2022/10/10 05:37:33;;;;;;;1.90;1.50;;;16.00;49.70;;;;;;5011330;28;20209;-77
2022/10/10 05:39:59;;;;;;;2.50;1.57;;;16.00;49.90;;;;;;5012968;28;20430;-78
2022/10/10 05:42:24;;;;;;;2.77;1.90;;;16.10;49.30;;;;;;5007016;28;20786;-77
2022/10/10 05:44:50;;;;;;;2.33;1.70;;;16.10;49.20;;;;;;5008096;28;20184;-77
2022/10/10 05:47:16;;;;;;;2.63;2.00;;;16.20;48.90;;;;;;5010392;28;20241;-78
2022/10/10 05:49:42;;;;;;;3.30;2.10;;;16.20;48.90;;;;;;5011238;28;20222;-78
2022/10/10 05:52:08;;;;;;;3.13;2.00;;;16.30;48.50;;;;;;5010744;28;20190;-78
2022/10/10 05:54:33;;;;;;;4.80;2.43;;;16.40;48.50;;;;;;5011163;28;20476;-78
2022/10/10 05:56:59;;;;;;;2.07;1.80;;;16.30;48.60;;;;;;5008856;28;20183;-77
2022/10/10 05:59:24;;;;;;;3.00;2.10;;;16.30;48.80;;;;;;5009299;28;20199;-77
2022/10/10 06:01:50;;;;;;;2.03;1.70;;;16.30;48.90;;;;;;5008220;28;20201;-77
2022/10/10 06:04:16;;;;;;;2.90;2.10;;;16.40;48.90;;;;;;5008623;28;20281;-77
2022/10/10 06:06:42;;;;;;;1.80;1.57;;;16.40;49.20;;;;;;5012204;28;20649;-77
2022/10/10 06:09:07;;;;;;;1.60;1.50;;;16.60;49.10;;;;;;5011054;28;20186;-77
2022/10/10 06:11:33;;;;;;;4.70;1.43;;;16.70;50.30;;;;;;5011522;28;20665;-77
2022/10/10 06:13:58;;;;;;;4.07;2.07;;;16.40;50.30;;;;;;5006074;28;20199;-77
2022/10/10 06:16:25;;;;;;;2.53;1.63;;;16.40;49.60;;;;;;5007971;28;20188;-77
2022/10/10 06:18:52;;;;;;;2.93;2.10;;;16.50;49.20;;;;;;5008157;28;20189;-77
2022/10/10 06:21:18;;;;;;;3.50;2.23;;;16.40;49.50;;;;;;5009338;28;20479;-77
2022/10/10 06:23:44;;;;;;;2.60;1.90;;;16.50;50.20;;;;;;5003601;28;20481;-77
2022/10/10 06:26:10;;;;;;;5.10;2.70;;;16.50;49.50;;;;;;5002689;28;20476;-77
2022/10/10 06:28:36;;;;;;;1.80;1.70;;;16.60;48.90;;;;;;5008071;28;21246;-77
2022/10/10 06:31:05;;;;;;;2.90;2.43;;;16.60;49.40;;;;;;5008052;28;20461;-77
2022/10/10 06:33:31;;;;;;;11.83;3.60;;;16.70;49.50;;;;;;5007746;28;20217;-77
2022/10/10 06:35:57;;;;;;;5.40;2.77;;;16.70;48.90;;;;;;5007385;28;20476;-77
2022/10/10 06:38:23;;;;;;;3.40;2.70;;;16.80;49.00;;;;;;5010077;28;20443;-77
2022/10/10 06:40:49;;;;;;;3.57;2.60;;;16.90;48.60;;;;;;5011034;28;20816;-77
2022/10/10 06:43:16;;;;;;;3.63;2.47;;;17.00;48.30;;;;;;5010759;28;20542;-77
2022/10/10 06:45:45;;;;;;;6.03;3.20;;;17.10;48.40;;;;;;5003787;28;20499;-77
2022/10/10 06:48:12;;;;;;;5.07;2.30;;;17.00;48.70;;;;;;5008558;28;20515;-77
2022/10/10 06:50:38;;;;;;;5.50;3.00;;;17.20;48.30;;;;;;5009416;28;20622;-77
2022/10/10 06:53:04;;;;;;;2.30;2.17;;;17.20;49.00;;;;;;5007299;28;20467;-77
2022/10/10 06:55:29;;;;;;;3.10;2.50;;;17.20;48.40;;;;;;5008524;28;20268;-77
2022/10/10 06:57:56;;;;;;;2.90;2.30;;;17.10;48.40;;;;;;5008118;28;20444;-77
2022/10/10 07:00:21;;;;;;;3.50;2.67;;;16.90;48.20;;;;;;5010876;28;20200;-77
2022/10/10 07:02:47;;;;;;;5.47;2.87;;;16.90;48.50;;;;;;5009458;28;20949;-77
2022/10/10 07:05:15;;;;;;;2.77;2.03;;;17.00;48.20;;;;;;5009851;28;20256;-79
2022/10/10 07:07:41;;;;;;;1.70;1.60;;;16.90;48.40;;;;;;5008449;28;20180;-79
2022/10/10 07:10:10;;;;;;;1.80;1.60;;;16.90;48.80;;;;;;5010673;28;20437;-79
2022/10/10 07:12:37;;;;;;;2.27;2.17;;;16.70;48.90;;;;;;5011699;28;20431;-79
2022/10/10 07:15:03;;;;;;;3.50;2.03;;;16.80;48.60;;;;;;5013588;28;20428;-79
2022/10/10 07:17:30;;;;;;;2.00;1.80;;;16.90;48.10;;;;;;5022488;28;20436;-77
2022/10/10 07:19:56;;;;;;;2.73;1.80;;;16.90;48.40;;;;;;5010763;28;20207;-77
2022/10/10 07:22:21;;;;;;;1.80;1.80;;;17.00;48.30;;;;;;5008759;28;20432;-77
2022/10/10 07:24:47;;;;;;;2.17;1.93;;;17.30;47.90;;;;;;5010312;28;20201;-77
2022/10/10 07:27:12;;;;;;;2.23;2.10;;;17.30;47.00;;;;;;5010149;28;20223;-77
2022/10/10 07:29:38;;;;;;;2.07;1.97;;;17.10;47.10;;;;;;5008460;28;20645;-77
2022/10/10 07:32:04;;;;;;;2.40;2.10;;;17.10;47.30;;;;;;5007226;28;20177;-77
2022/10/10 07:34:29;;;;;;;2.50;1.77;;;17.10;47.20;;;;;;5010023;28;20611;-77
2022/10/10 07:36:55;;;;;;;3.17;2.13;;;17.30;46.90;;;;;;5009363;28;20248;-77
2022/10/10 07:39:22;;;;;;;2.00;1.80;;;17.30;47.10;;;;;;5006176;28;20640;-77
2022/10/10 07:41:49;;;;;;;4.83;2.30;;;17.40;46.90;;;;;;5007655;28;20173;-77
2022/10/10 07:44:15;;;;;;;2.83;2.40;;;17.30;47.30;;;;;;5005904;28;21045;-77
2022/10/10 07:46:41;;;;;;;3.10;1.93;;;17.30;47.10;;;;;;5010338;28;21003;-77
2022/10/10 07:49:07;;;;;;;3.73;2.03;;;17.30;46.70;;;;;;5007550;28;20439;-76
2022/10/10 07:51:33;;;;;;;3.20;2.40;;;17.30;47.70;;;;;;5007336;28;20230;-77
2022/10/10 07:53:59;;;;;;;2.70;2.00;;;17.60;47.30;;;;;;5009148;28;20483;-76
2022/10/10 07:56:25;;;;;;;4.40;2.47;;;17.60;46.80;;;;;;5009741;28;20923;-77
2022/10/10 07:58:51;;;;;;;2.57;2.37;;;17.90;47.30;;;;;;5015844;28;20436;-80
2022/10/10 08:01:16;;;;;;;2.87;2.10;;;17.80;47.70;;;;;;5018835;28;20528;-80
2022/10/10 08:03:42;;;;;;;3.30;2.23;;;17.90;46.70;;;;;;5018652;28;20197;-80
2022/10/10 08:06:11;;;;;;;2.80;2.00;;;18.00;45.20;;;;;;5021378;28;20216;-80
2022/10/10 08:08:38;;;;;;;2.10;1.83;;;18.00;46.00;;;;;;5018975;28;20832;-79
2022/10/10 08:11:05;;;;;;;4.53;2.47;;;18.10;45.80;;;;;;5013953;28;20955;-80
2022/10/10 08:13:30;;;;;;;3.93;2.47;;;18.10;46.70;;;;;;5013976;28;20812;-77
2022/10/10 08:15:56;;;;;;;1.60;1.57;;;18.20;46.50;;;;;;5013024;28;20518;-77
2022/10/10 08:18:21;;;;;;;3.20;2.43;;;18.20;46.50;;;;;;5011859;28;20314;-77
2022/10/10 08:20:56;;;;;;;2.57;2.43;;;18.00;45.60;;;;;;5010763;28;20656;-79
2022/10/10 08:23:22;;;;;;;2.97;2.40;;;17.80;46.40;;;;;;5024578;28;20200;-78
2022/10/10 08:25:48;;;;;;;2.50;1.97;;;17.90;46.40;;;;;;5013502;28;20462;-77
2022/10/10 08:28:13;;;;;;;1.73;1.70;;;18.10;46.40;;;;;;5010365;28;20182;-77
2022/10/10 08:30:40;;;;;;;2.50;2.30;;;18.20;44.70;;;;;;5007336;28;20193;-77
2022/10/10 08:33:06;;;;;;;3.97;2.67;;;17.90;45.70;;;;;;5012178;28;20230;-77
2022/10/10 08:35:35;;;;;;;3.83;2.23;;;18.00;45.70;;;;;;5013083;28;20469;-77
2022/10/10 08:38:01;;;;;;;1.77;1.67;;;18.10;45.70;;;;;;5012008;28;20239;-78
2022/10/10 08:40:27;;;;;;;1.77;1.73;;;18.20;45.80;;;;;;5012265;28;20433;-77
2022/10/10 08:42:55;;;;;;;2.93;2.43;;;18.30;45.30;;;;;;5010153;28;20219;-77
2022/10/10 08:45:25;;;;;;;2.83;2.27;;;18.50;45.00;;;;;;5013249;28;20442;-77
2022/10/10 08:48:02;;;;;;;2.43;2.07;;;18.60;43.70;;;;;;5013690;28;20768;-77
2022/10/10 08:50:32;;;;;;;2.23;2.00;;;18.70;45.00;;;;;;5004998;28;20817;-77
2022/10/10 08:53:00;;;;;;;3.77;2.40;;;18.70;46.00;;;;;;5009057;28;20462;-77
2022/10/10 08:55:47;;;;;;;2.17;1.93;;;18.80;44.00;;;;;;5010550;28;20470;-78
2022/10/10 08:58:57;;;;;;;2.67;2.30;;;18.90;43.60;;;;;;5009147;28;20444;-77
2022/10/10 09:01:32;;;;;;;2.83;2.63;;;19.10;44.40;;;;;;4983002;28;20589;-77
2022/10/10 09:04:03;;;;;;;2.20;2.03;;;19.00;43.90;;;;;;4981237;28;20492;-78
2022/10/10 09:06:58;;;;;;;1.97;1.83;;;19.00;44.60;;;;;;4979612;28;20469;-77
2022/10/10 09:10:05;;;;;;;2.30;1.93;;;19.00;45.10;;;;;;4981021;28;20955;-77
2022/10/10 09:13:15;;;;;;;1.80;1.70;;;19.20;44.20;;;;;;4962912;28;20529;-78
2022/10/10 09:15:56;;;;;;;2.53;2.00;;;19.30;44.00;;;;;;4965866;28;20458;-78
2022/10/10 09:18:34;;;;;;;8.07;2.93;;;19.30;43.40;;;;;;4964836;28;20437;-78
2022/10/10 09:21:24;;;;;;;3.07;2.43;;;19.40;43.40;;;;;;4965661;28;21345;-77
2022/10/10 09:24:21;;;;;;;3.30;2.90;;;19.20;43.60;;;;;;4966676;28;20951;-78
2022/10/10 09:26:56;;;;;;;2.30;2.03;;;18.90;44.60;;;;;;4972893;28;21079;-78
2022/10/10 09:29:38;;;;;;;2.77;1.90;;;19.00;43.90;;;;;;4970846;28;21036;-78
2022/10/10 09:32:16;;;;;;;4.00;2.80;;;19.10;44.10;;;;;;4969883;28;20436;-77
2022/10/10 09:34:46;;;;;;;3.77;2.23;;;19.00;44.70;;;;;;4968027;28;20483;-77
2022/10/10 09:37:16;;;;;;;3.73;1.97;;;19.00;44.60;;;;;;4980777;28;20439;-78
2022/10/10 09:39:48;;;;;;;2.87;1.87;;;19.00;45.00;;;;;;5013334;28;20901;-77
2022/10/10 09:42:19;;;;;;;2.27;1.87;;;19.30;45.10;;;;;;5013192;28;20764;-77
2022/10/10 09:44:45;;;;;;;2.00;1.80;;;19.20;44.30;;;;;;5012471;28;20445;-77
2022/10/10 09:47:15;;;;;;;1.50;1.40;;;21.50;47.30;;;;;;5011411;28;20462;-77
2022/10/10 09:49:42;;;;;;;2.80;2.03;;;19.10;44.60;;;;;;5013001;28;20224;-77
2022/10/10 09:52:30;;;;;;;2.50;2.10;;;18.90;44.50;;;;;;5012707;28;20444;-77
2022/10/10 09:55:05;;;;;;;5.03;2.90;;;18.90;45.80;;;;;;5012452;28;20778;-77
2022/10/10 09:57:37;;;;;;;2.10;1.90;;;17.70;45.00;;;;;;5008259;28;20449;-77
2022/10/10 10:00:17;;;;;;;3.73;2.43;;;19.00;46.60;;;;;;5011238;28;21518;-77
2022/10/10 10:02:47;;;;;;;2.27;2.17;;;19.10;46.40;;;;;;5010315;28;20440;-77
2022/10/10 10:05:27;;;;;;;4.30;2.47;;;18.90;47.80;;;;;;5008632;28;20437;-77
2022/10/10 10:07:52;;;;;;;2.33;1.80;;;19.40;45.50;;;;;;5010260;28;20584;-77
2022/10/10 10:10:19;;;;;;;5.60;2.70;;;19.60;45.00;;;;;;5012492;28;20505;-77
2022/10/10 10:12:45;;;;;;;1.93;1.90;;;19.30;46.20;;;;;;5010443;28;20211;-77
2022/10/10 10:15:20;;;;;;;2.27;1.83;;;20.00;45.70;;;;;;5011520;28;20458;-77
2022/10/10 10:18:06;;;;;;;2.30;1.97;;;20.30;43.90;;;;;;5007082;28;20183;-78
2022/10/10 10:20:34;;;;;;;3.20;2.30;;;20.60;42.70;;;;;;5005475;28;20431;-77
2022/10/10 10:23:00;;;;;;;3.20;2.10;;;20.60;42.20;;;;;;5011142;28;20455;-77
2022/10/10 10:25:31;;;;;;;3.60;2.77;;;20.70;42.30;;;;;;5010771;28;20925;-77
2022/10/10 10:28:11;;;;;;;3.50;2.53;;;20.50;41.90;;;;;;5009116;28;20180;-77
2022/10/10 10:30:38;;;;;;;2.37;2.10;;;20.50;42.50;;;;;;5006233;28;20515;-77
2022/10/10 10:33:19;;;;;;;2.47;1.93;;;20.60;42.20;;;;;;5007959;28;20470;-77
2022/10/10 10:36:15;;;;;;;4.17;2.87;;;20.80;42.40;;;;;;5005573;28;20437;-77
2022/10/10 10:39:05;;;;;;;3.13;2.27;;;20.80;43.10;;;;;;4999175;28;20528;-74
2022/10/10 10:41:41;;;;;;;2.20;2.00;;;20.80;41.80;;;;;;5008613;28;20443;-74
2022/10/10 10:44:34;;;;;;;3.10;2.43;;;21.10;41.10;;;;;;5007932;28;20534;-74
2022/10/10 10:47:21;;;;;;;3.27;2.50;;;21.70;41.80;;;;;;5009517;28;20453;-76
2022/10/10 10:50:01;;;;;;;2.07;1.70;;;22.00;39.10;;;;;;5006505;28;20432;-75
2022/10/10 10:53:03;;;;;;;3.60;2.63;;;22.30;37.00;;;;;;5007040;28;20421;-75
2022/10/10 10:55:31;;;;;;;3.13;2.30;;;22.60;38.10;;;;;;4977074;28;20957;-75
2022/10/10 10:58:35;;;;;;;2.00;1.80;;;22.60;38.10;;;;;;4982096;28;20439;-76
2022/10/10 11:01:04;;;;;;;4.77;2.00;;;22.60;38.60;;;;;;4969000;28;20456;-76
2022/10/10 11:03:50;;;;;;;2.40;2.03;;;23.20;39.00;;;;;;4981353;28;20963;-75
2022/10/10 11:06:37;;;;;;;2.17;1.70;;;23.40;37.00;;;;;;4972540;28;20496;-75
2022/10/10 11:09:31;;;;;;;1.80;1.73;;;23.70;37.70;;;;;;4987093;28;20481;-78
2022/10/10 11:12:09;;;;;;;2.87;2.20;;;24.30;35.10;;;;;;4970036;28;20538;-76
2022/10/10 11:14:53;;;;;;;4.13;2.23;;;24.70;35.70;;;;;;4969582;28;20468;-76
2022/10/10 11:17:40;;;;;;;1.60;1.50;;;24.30;35.20;;;;;;4966386;28;20448;-76
2022/10/10 11:20:28;;;;;;;2.70;1.97;;;23.90;36.00;;;;;;4979326;28;20501;-76
2022/10/10 11:23:20;;;;;;;2.07;1.70;;;24.30;36.70;;;;;;4978448;28;21037;-76
2022/10/10 11:25:55;;;;;;;2.03;1.77;;;24.50;35.90;;;;;;4944303;28;21320;-76
2022/10/10 11:28:26;;;;;;;1.80;1.60;;;24.40;35.00;;;;;;4974692;28;20440;-78
2022/10/10 11:31:00;;;;;;;1.90;1.80;;;24.90;36.20;;;;;;4970937;28;20441;-77
2022/10/10 11:33:34;;;;;;;1.87;1.60;;;25.20;33.50;;;;;;5010488;28;20463;-77
2022/10/10 11:36:12;;;;;;;2.10;1.40;;;25.30;31.90;;;;;;5016209;28;20443;-76
2022/10/10 11:38:47;;;;;;;1.50;1.30;;;25.30;32.30;;;;;;5014124;28;20939;-78
2022/10/10 11:41:21;;;;;;;1.50;1.50;;;25.50;32.10;;;;;;5016470;28;20473;-75
2022/10/10 11:43:59;;;;;;;1.70;1.50;;;25.50;32.00;;;;;;5014711;28;20850;-77
2022/10/10 11:47:06;;;;;;;1.47;1.43;;;25.40;32.10;;;;;;5014905;28;20478;-75
2022/10/10 11:50:04;;;;;;;1.67;1.53;;;25.60;31.20;;;;;;5014595;28;20470;-74
2022/10/10 11:52:55;;;;;;;4.17;1.73;;;25.50;32.30;;;;;;5012913;28;20511;-75
2022/10/10 11:55:56;;;;;;;2.13;1.70;;;25.60;28.80;;;;;;5021984;28;20780;-75
2022/10/10 11:58:45;;;;;;;1.93;1.40;;;25.80;28.90;;;;;;5007028;28;20490;-76
2022/10/10 12:01:36;;;;;;;2.13;1.53;;;26.10;27.80;;;;;;5015027;28;20485;-75
2022/10/10 12:04:02;;;;;;;1.30;1.20;;;26.40;25.20;;;;;;5013435;28;20447;-76
2022/10/10 12:06:54;;;;;;;1.30;1.20;;;26.30;25.40;;;;;;5010475;28;20857;-75
2022/10/10 12:09:25;;;;;;;1.50;1.40;;;25.50;25.70;;;;;;5008099;28;20189;-75
2022/10/10 12:12:06;;;;;;;2.50;1.50;;;25.60;24.80;;;;;;5009049;28;20431;-75
2022/10/10 12:14:36;;;;;;;1.33;1.33;;;25.10;25.70;;;;;;5005126;28;20447;-74
2022/10/10 12:17:02;;;;;;;1.70;1.40;;;24.50;26.30;;;;;;5011234;28;20435;-74
2022/10/10 12:19:28;;;;;;;1.77;1.50;;;24.30;26.80;;;;;;5014579;28;20423;-77
2022/10/10 12:21:57;;;;;;;1.40;1.30;;;23.70;27.10;;;;;;5008973;28;20196;-74
2022/10/10 12:24:24;;;;;;;2.20;1.57;;;23.90;27.80;;;;;;5011369;28;20459;-76
2022/10/10 12:26:55;;;;;;;1.63;1.50;;;24.10;27.20;;;;;;5000235;28;20915;-85
2022/10/10 12:29:45;;;;;;;1.70;1.50;;;24.60;27.70;;;;;;5009442;28;20473;-75
2022/10/10 12:32:13;;;;;;;2.03;1.37;;;25.00;27.00;;;;;;5006424;28;20444;-76
2022/10/10 12:34:54;;;;;;;1.50;1.20;;;23.50;28.40;;;;;;4999409;28;20463;-74
2022/10/10 12:37:31;;;;;;;2.00;1.30;;;23.30;28.40;;;;;;5011250;28;20554;-74
2022/10/10 12:40:06;;;;;;;1.50;1.40;;;23.60;27.20;;;;;;5008769;28;20847;-79
2022/10/10 12:42:46;;;;;;;1.50;1.40;;;23.80;26.50;;;;;;5008394;28;20438;-78
2022/10/10 12:45:30;;;;;;;2.13;1.80;;;24.50;24.70;;;;;;5001458;28;20511;-76
2022/10/10 12:48:04;;;;;;;1.53;1.30;;;24.90;24.80;;;;;;5005103;28;20525;-73
2022/10/10 12:50:34;;;;;;;3.10;1.90;;;24.40;24.50;;;;;;5012806;28;20503;-74
2022/10/10 12:53:12;;;;;;;1.30;1.27;;;24.10;24.90;;;;;;5011519;28;20897;-74
2022/10/10 12:55:50;;;;;;;2.57;1.50;;;23.70;26.10;;;;;;5012565;28;20483;-77
2022/10/10 12:58:24;;;;;;;1.40;1.10;;;23.50;25.60;;;;;;5010148;28;20423;-75
2022/10/10 13:00:50;;;;;;;1.77;1.47;;;23.80;25.60;;;;;;5008271;28;20444;-75
2022/10/10 13:03:41;;;;;;;2.67;1.77;;;24.50;26.60;;;;;;5011003;28;20858;-76
2022/10/10 13:06:37;;;;;;;1.40;1.23;;;25.50;23.10;;;;;;5010029;28;20460;-74
2022/10/10 13:09:14;;;;;;;2.53;1.63;;;25.70;23.00;;;;;;5010974;28;20438;-73